首页
METAR-TAF:

METAR-TAF

机场 :

奧爾比亞, 意大利

纬度: 40-54N, 经度: 009-31E, 海拔: 11米

当前天气观测

该预报发布于26分钟前的20:50 UTC
风速2节,风向多变
温度 22°C
湿度 88%
气压 1016 hPa
能见度10公里或以上
1500米以下无云,无积雨云

METAR: LIEO 182050Z VRB02KT CAVOK 22/20 Q1016

时间: 23:16 (21:16 UTC)

预报

该预报发布于4小时和16分钟前的17:00 UTC
预报有效从18日的 18点(UTC)到 19日的 18点(UTC)
风速15节,风向东南
能见度10公里或以上
少量云层高于4000英尺
成为
从 18日的 18点(UTC)到 18日的 20点(UTC)
风速5节,风向多变
成为
从 19日的 08点(UTC)到 19日的 10点(UTC)
风速13节,风向东转东南

TAF: LIEO 181700Z 1818/1918 13015KT 9999 FEW040 BECMG 1818/1820 VRB05KT BECMG 1908/1910 11013KT

超过4000个机场的气象观测和天气预报(METAR&TAF报告)。

可查询的气象台以黄色和红色小点在地图上表示。

将鼠标移到小点上方,可查看气象台名称。

然后点击查看天气观测和预报。

如需切换地图:点击带黑十字的绿色按钮放大地图;点击带横线的绿色按钮缩小地图;或者点击绿色箭头查看邻近地区的地图。


METAR-TAF: